sensor_id;sensor_type;location;lat;lon;timestamp;pressure;altitude;pressure_sealevel;temperature;humidity
49393;BME280;35268;42.642;23.308;2022-12-18T00:01:32;94644.94;;;6.37;85.45
49393;BME280;35268;42.642;23.308;2022-12-18T00:04:00;94641.75;;;6.35;85.40
49393;BME280;35268;42.642;23.308;2022-12-18T00:06:27;94649.19;;;6.23;85.51
49393;BME280;35268;42.642;23.308;2022-12-18T00:08:54;94652.38;;;6.15;85.56
49393;BME280;35268;42.642;23.308;2022-12-18T00:11:21;94657.13;;;6.13;86.05
49393;BME280;35268;42.642;23.308;2022-12-18T00:13:48;94656.59;;;6.16;85.98
49393;BME280;35268;42.642;23.308;2022-12-18T00:16:19;94662.13;;;6.04;86.08
49393;BME280;35268;42.642;23.308;2022-12-18T00:18:46;94670.09;;;5.99;86.23
49393;BME280;35268;42.642;23.308;2022-12-18T00:21:12;94663.69;;;5.90;86.37
49393;BME280;35268;42.642;23.308;2022-12-18T00:23:39;94672.69;;;5.78;86.85
49393;BME280;35268;42.642;23.308;2022-12-18T00:26:09;94678.19;;;5.72;87.07
49393;BME280;35268;42.642;23.308;2022-12-18T00:28:35;94677.13;;;5.68;87.37
49393;BME280;35268;42.642;23.308;2022-12-18T00:31:01;94676.34;;;5.67;87.07
49393;BME280;35268;42.642;23.308;2022-12-18T00:33:27;94678.97;;;5.57;87.66
49393;BME280;35268;42.642;23.308;2022-12-18T00:35:53;94681.63;;;5.57;87.62
49393;BME280;35268;42.642;23.308;2022-12-18T00:38:18;94683.47;;;5.61;88.12
49393;BME280;35268;42.642;23.308;2022-12-18T00:40:44;94682.69;;;5.61;87.59
49393;BME280;35268;42.642;23.308;2022-12-18T00:43:09;94684.53;;;5.66;87.35
49393;BME280;35268;42.642;23.308;2022-12-18T00:45:35;94695.66;;;5.68;86.64
49393;BME280;35268;42.642;23.308;2022-12-18T00:48:00;94696.97;;;5.60;86.88
49393;BME280;35268;42.642;23.308;2022-12-18T00:50:26;94690.06;;;5.49;87.13
49393;BME280;35268;42.642;23.308;2022-12-18T00:52:52;94700.63;;;5.49;87.05
49393;BME280;35268;42.642;23.308;2022-12-18T00:55:18;94699.59;;;5.50;87.09
49393;BME280;35268;42.642;23.308;2022-12-18T00:57:44;94694.81;;;5.47;86.80
49393;BME280;35268;42.642;23.308;2022-12-18T01:00:14;94692.97;;;5.47;86.35
49393;BME280;35268;42.642;23.308;2022-12-18T01:02:40;94699.28;;;5.41;85.54
49393;BME280;35268;42.642;23.308;2022-12-18T01:05:06;94703.81;;;5.46;85.84
49393;BME280;35268;42.642;23.308;2022-12-18T01:07:31;94706.72;;;5.49;85.54
49393;BME280;35268;42.642;23.308;2022-12-18T01:09:57;94710.41;;;5.43;85.35
49393;BME280;35268;42.642;23.308;2022-12-18T01:12:22;94714.63;;;5.39;85.11
49393;BME280;35268;42.642;23.308;2022-12-18T01:14:48;94719.59;;;5.25;85.23
49393;BME280;35268;42.642;23.308;2022-12-18T01:17:14;94719.00;;;5.13;85.69
49393;BME280;35268;42.642;23.308;2022-12-18T01:19:39;94719.53;;;5.10;85.22
49393;BME280;35268;42.642;23.308;2022-12-18T01:22:05;94724.78;;;5.05;84.87
49393;BME280;35268;42.642;23.308;2022-12-18T01:24:30;94726.34;;;5.00;84.84
49393;BME280;35268;42.642;23.308;2022-12-18T01:26:56;94730.53;;;4.96;85.15
49393;BME280;35268;42.642;23.308;2022-12-18T01:29:22;94738.16;;;4.88;85.80
49393;BME280;35268;42.642;23.308;2022-12-18T01:31:48;94735.28;;;4.89;86.06
49393;BME280;35268;42.642;23.308;2022-12-18T01:34:13;94736.84;;;4.90;85.92
49393;BME280;35268;42.642;23.308;2022-12-18T01:36:39;94736.59;;;4.87;86.03
49393;BME280;35268;42.642;23.308;2022-12-18T01:39:10;94736.53;;;4.81;86.09
49393;BME280;35268;42.642;23.308;2022-12-18T01:41:37;94728.88;;;4.80;86.17
49393;BME280;35268;42.642;23.308;2022-12-18T01:49:50;94746.19;;;4.66;85.93
49393;BME280;35268;42.642;23.308;2022-12-18T01:52:16;94743.03;;;4.63;86.00
49393;BME280;35268;42.642;23.308;2022-12-18T01:54:42;94750.38;;;4.56;86.19
49393;BME280;35268;42.642;23.308;2022-12-18T01:57:09;94741.88;;;4.49;86.74
49393;BME280;35268;42.642;23.308;2022-12-18T01:59:35;94745.56;;;4.48;87.10
49393;BME280;35268;42.642;23.308;2022-12-18T02:02:01;94747.44;;;4.53;86.84
49393;BME280;35268;42.642;23.308;2022-12-18T02:04:27;94749.31;;;4.57;86.89
49393;BME280;35268;42.642;23.308;2022-12-18T02:09:48;94754.56;;;4.52;85.93
49393;BME280;35268;42.642;23.308;2022-12-18T02:12:19;94757.69;;;4.49;85.95
49393;BME280;35268;42.642;23.308;2022-12-18T02:14:59;94761.66;;;4.47;86.66
49393;BME280;35268;42.642;23.308;2022-12-18T02:28:36;94772.97;;;4.42;86.88
49393;BME280;35268;42.642;23.308;2022-12-18T02:31:07;94763.50;;;4.46;86.78
49393;BME280;35268;42.642;23.308;2022-12-18T02:33:35;94773.00;;;4.47;86.92
49393;BME280;35268;42.642;23.308;2022-12-18T02:36:03;94765.06;;;4.47;86.59
49393;BME280;35268;42.642;23.308;2022-12-18T02:38:30;94763.19;;;4.42;86.54
49393;BME280;35268;42.642;23.308;2022-12-18T02:40:56;94766.63;;;4.43;86.33
49393;BME280;35268;42.642;23.308;2022-12-18T02:43:22;94775.84;;;4.40;86.37
49393;BME280;35268;42.642;23.308;2022-12-18T02:45:59;94778.19;;;4.37;86.53
49393;BME280;35268;42.642;23.308;2022-12-18T02:48:32;94778.94;;;4.32;86.63
49393;BME280;35268;42.642;23.308;2022-12-18T02:51:20;94779.75;;;4.33;86.76
49393;BME280;35268;42.642;23.308;2022-12-18T02:53:53;94766.78;;;4.31;86.41
49393;BME280;35268;42.642;23.308;2022-12-18T02:56:33;94774.47;;;4.33;86.28
49393;BME280;35268;42.642;23.308;2022-12-18T02:59:13;94780.19;;;4.25;86.06
49393;BME280;35268;42.642;23.308;2022-12-18T03:01:51;94772.81;;;4.21;86.31
49393;BME280;35268;42.642;23.308;2022-12-18T03:06:55;94792.09;;;4.27;85.91
49393;BME280;35268;42.642;23.308;2022-12-18T03:09:36;94786.47;;;4.18;85.79
49393;BME280;35268;42.642;23.308;2022-12-18T03:15:02;94798.03;;;4.12;85.78
49393;BME280;35268;42.642;23.308;2022-12-18T03:17:31;94794.84;;;4.10;85.70
49393;BME280;35268;42.642;23.308;2022-12-18T03:20:02;94795.34;;;4.07;85.73
49393;BME280;35268;42.642;23.308;2022-12-18T03:22:30;94799.97;;;3.95;86.09
49393;BME280;35268;42.642;23.308;2022-12-18T03:24:59;94802.41;;;4.01;86.40
49393;BME280;35268;42.642;23.308;2022-12-18T03:27:26;94792.09;;;4.00;86.33
49393;BME280;35268;42.642;23.308;2022-12-18T03:30:02;94790.78;;;3.97;85.63
49393;BME280;35268;42.642;23.308;2022-12-18T03:32:41;94790.22;;;3.95;85.28
49393;BME280;35268;42.642;23.308;2022-12-18T03:35:09;94810.81;;;3.98;84.88
49393;BME280;35268;42.642;23.308;2022-12-18T03:37:35;94818.72;;;3.98;84.69
49393;BME280;35268;42.642;23.308;2022-12-18T03:40:01;94823.72;;;3.95;84.30
49393;BME280;35268;42.642;23.308;2022-12-18T03:42:39;94821.13;;;4.00;84.55
49393;BME280;35268;42.642;23.308;2022-12-18T03:45:27;94835.78;;;3.91;84.07
49393;BME280;35268;42.642;23.308;2022-12-18T03:56:03;94848.63;;;3.82;84.65
49393;BME280;35268;42.642;23.308;2022-12-18T03:58:30;94857.28;;;3.77;84.62
49393;BME280;35268;42.642;23.308;2022-12-18T04:01:00;94850.47;;;3.81;84.47
49393;BME280;35268;42.642;23.308;2022-12-18T04:03:28;94844.09;;;3.77;84.75
49393;BME280;35268;42.642;23.308;2022-12-18T04:05:55;94856.75;;;3.80;84.73
49393;BME280;35268;42.642;23.308;2022-12-18T04:08:23;94858.25;;;3.71;84.39
49393;BME280;35268;42.642;23.308;2022-12-18T04:10:49;94859.81;;;3.72;84.30
49393;BME280;35268;42.642;23.308;2022-12-18T04:13:23;94864.81;;;3.69;84.66
49393;BME280;35268;42.642;23.308;2022-12-18T04:15:48;94874.72;;;3.61;84.22
49393;BME280;35268;42.642;23.308;2022-12-18T04:18:13;94859.47;;;3.64;83.81
49393;BME280;35268;42.642;23.308;2022-12-18T04:20:39;94871.84;;;3.63;83.47
49393;BME280;35268;42.642;23.308;2022-12-18T04:23:04;94874.50;;;3.63;83.81
49393;BME280;35268;42.642;23.308;2022-12-18T04:25:30;94876.63;;;3.66;83.54
49393;BME280;35268;42.642;23.308;2022-12-18T04:27:55;94888.66;;;3.57;83.65
49393;BME280;35268;42.642;23.308;2022-12-18T04:30:21;94876.91;;;3.48;83.45
49393;BME280;35268;42.642;23.308;2022-12-18T04:32:46;94879.88;;;3.51;83.42
49393;BME280;35268;42.642;23.308;2022-12-18T04:35:12;94898.88;;;3.53;82.71
49393;BME280;35268;42.642;23.308;2022-12-18T04:37:37;94896.44;;;3.47;82.33
49393;BME280;35268;42.642;23.308;2022-12-18T04:40:03;94910.16;;;3.49;81.57
49393;BME280;35268;42.642;23.308;2022-12-18T04:42:29;94902.72;;;3.46;81.81
49393;BME280;35268;42.642;23.308;2022-12-18T04:44:54;94917.75;;;3.45;81.64
49393;BME280;35268;42.642;23.308;2022-12-18T04:47:19;94903.94;;;3.38;81.19
49393;BME280;35268;42.642;23.308;2022-12-18T04:49:45;94912.81;;;3.32;81.76
49393;BME280;35268;42.642;23.308;2022-12-18T04:52:10;94905.22;;;3.35;81.35
49393;BME280;35268;42.642;23.308;2022-12-18T04:54:36;94903.69;;;3.39;81.72
49393;BME280;35268;42.642;23.308;2022-12-18T04:57:01;94918.72;;;3.39;82.49
49393;BME280;35268;42.642;23.308;2022-12-18T04:59:27;94917.53;;;3.30;82.43
49393;BME280;35268;42.642;23.308;2022-12-18T05:01:52;94921.28;;;3.34;81.49
49393;BME280;35268;42.642;23.308;2022-12-18T05:04:18;94941.31;;;3.35;81.48
49393;BME280;35268;42.642;23.308;2022-12-18T05:06:43;94930.22;;;3.33;81.00
49393;BME280;35268;42.642;23.308;2022-12-18T05:09:09;94931.00;;;3.33;80.91
49393;BME280;35268;42.642;23.308;2022-12-18T05:11:34;94926.06;;;3.37;81.72
49393;BME280;35268;42.642;23.308;2022-12-18T05:14:00;94939.00;;;3.38;81.69
49393;BME280;35268;42.642;23.308;2022-12-18T05:16:25;94939.63;;;3.46;81.75
49393;BME280;35268;42.642;23.308;2022-12-18T05:18:50;94931.09;;;3.38;81.16
49393;BME280;35268;42.642;23.308;2022-12-18T05:21:16;94944.09;;;3.45;81.13
49393;BME280;35268;42.642;23.308;2022-12-18T05:23:41;94946.31;;;3.53;80.27
49393;BME280;35268;42.642;23.308;2022-12-18T05:26:07;94951.53;;;3.48;79.91
49393;BME280;35268;42.642;23.308;2022-12-18T05:28:34;94953.13;;;3.49;80.39
49393;BME280;35268;42.642;23.308;2022-12-18T05:31:01;94955.28;;;3.52;80.51
49393;BME280;35268;42.642;23.308;2022-12-18T05:33:30;94960.06;;;3.55;80.58
49393;BME280;35268;42.642;23.308;2022-12-18T05:35:57;94971.66;;;3.54;80.66
49393;BME280;35268;42.642;23.308;2022-12-18T05:38:24;94978.59;;;3.44;80.62
49393;BME280;35268;42.642;23.308;2022-12-18T05:40:51;94980.03;;;3.51;80.74
49393;BME280;35268;42.642;23.308;2022-12-18T05:43:18;94971.41;;;3.39;79.77
49393;BME280;35268;42.642;23.308;2022-12-18T05:45:44;94986.78;;;3.42;80.56
49393;BME280;35268;42.642;23.308;2022-12-18T05:48:10;94970.97;;;3.42;80.14
49393;BME280;35268;42.642;23.308;2022-12-18T05:50:37;94979.41;;;3.44;79.11
49393;BME280;35268;42.642;23.308;2022-12-18T05:53:03;94976.13;;;3.37;79.69
49393;BME280;35268;42.642;23.308;2022-12-18T05:55:29;94988.34;;;3.26;79.74
49393;BME280;35268;42.642;23.308;2022-12-18T05:57:57;94992.91;;;3.14;80.21
49393;BME280;35268;42.642;23.308;2022-12-18T06:00:23;95000.31;;;3.17;80.56
49393;BME280;35268;42.642;23.308;2022-12-18T06:02:48;95004.47;;;3.13;80.03
49393;BME280;35268;42.642;23.308;2022-12-18T06:05:14;95001.19;;;3.06;80.54
49393;BME280;35268;42.642;23.308;2022-12-18T06:07:39;95002.72;;;3.01;81.07
49393;BME280;35268;42.642;23.308;2022-12-18T06:10:05;95006.84;;;2.97;81.47
49393;BME280;35268;42.642;23.308;2022-12-18T06:12:31;95000.88;;;3.02;80.89
49393;BME280;35268;42.642;23.308;2022-12-18T06:14:59;95002.22;;;3.05;80.76
49393;BME280;35268;42.642;23.308;2022-12-18T06:17:28;95018.50;;;3.01;81.36
49393;BME280;35268;42.642;23.308;2022-12-18T06:19:54;95008.75;;;3.02;81.07
49393;BME280;35268;42.642;23.308;2022-12-18T06:22:19;95012.84;;;3.10;81.29
49393;BME280;35268;42.642;23.308;2022-12-18T06:24:45;95016.84;;;3.12;80.73
49393;BME280;35268;42.642;23.308;2022-12-18T06:27:10;95026.09;;;3.15;80.53
49393;BME280;35268;42.642;23.308;2022-12-18T06:29:35;95019.31;;;3.19;80.02
49393;BME280;35268;42.642;23.308;2022-12-18T06:32:01;95019.31;;;3.19;79.38
49393;BME280;35268;42.642;23.308;2022-12-18T06:34:26;95023.97;;;3.12;78.73
49393;BME280;35268;42.642;23.308;2022-12-18T06:36:52;95026.66;;;3.17;78.93
49393;BME280;35268;42.642;23.308;2022-12-18T06:39:18;95027.00;;;3.20;79.16
49393;BME280;35268;42.642;23.308;2022-12-18T06:41:43;95038.31;;;3.21;78.70
49393;BME280;35268;42.642;23.308;2022-12-18T06:44:08;95044.09;;;3.18;78.52
49393;BME280;35268;42.642;23.308;2022-12-18T06:46:34;95038.81;;;3.18;77.97
49393;BME280;35268;42.642;23.308;2022-12-18T06:48:59;95044.38;;;3.21;78.21
49393;BME280;35268;42.642;23.308;2022-12-18T06:51:25;95038.31;;;3.21;77.43
49393;BME280;35268;42.642;23.308;2022-12-18T06:53:51;95055.59;;;3.29;78.30
49393;BME280;35268;42.642;23.308;2022-12-18T06:56:17;95049.38;;;3.35;77.64
49393;BME280;35268;42.642;23.308;2022-12-18T06:58:42;95054.22;;;3.26;76.49
49393;BME280;35268;42.642;23.308;2022-12-18T07:01:10;95073.69;;;3.25;75.78
49393;BME280;35268;42.642;23.308;2022-12-18T07:03:37;95053.22;;;3.15;76.26
49393;BME280;35268;42.642;23.308;2022-12-18T07:06:03;95052.56;;;3.20;75.97
49393;BME280;35268;42.642;23.308;2022-12-18T07:08:29;95063.09;;;3.20;76.40
49393;BME280;35268;42.642;23.308;2022-12-18T07:10:55;95054.13;;;3.21;77.16
49393;BME280;35268;42.642;23.308;2022-12-18T07:13:21;95054.47;;;3.25;76.17
49393;BME280;35268;42.642;23.308;2022-12-18T07:15:46;95046.22;;;3.21;76.41
49393;BME280;35268;42.642;23.308;2022-12-18T07:18:12;95066.84;;;3.24;76.73
49393;BME280;35268;42.642;23.308;2022-12-18T07:20:37;95087.38;;;3.22;75.23
49393;BME280;35268;42.642;23.308;2022-12-18T07:23:03;95069.94;;;3.21;75.26
49393;BME280;35268;42.642;23.308;2022-12-18T07:25:36;95071.56;;;3.22;74.85
49393;BME280;35268;42.642;23.308;2022-12-18T07:28:02;95088.00;;;3.29;75.04
49393;BME280;35268;42.642;23.308;2022-12-18T07:30:28;95079.31;;;3.29;74.46
49393;BME280;35268;42.642;23.308;2022-12-18T07:32:54;95088.31;;;3.16;74.40
49393;BME280;35268;42.642;23.308;2022-12-18T07:35:19;95085.69;;;3.16;74.41
49393;BME280;35268;42.642;23.308;2022-12-18T07:37:44;95083.97;;;3.10;74.92
49393;BME280;35268;42.642;23.308;2022-12-18T07:40:11;95076.00;;;3.21;75.32
49393;BME280;35268;42.642;23.308;2022-12-18T07:42:36;95088.22;;;3.28;75.60
49393;BME280;35268;42.642;23.308;2022-12-18T07:45:05;95089.66;;;3.18;74.85
49393;BME280;35268;42.642;23.308;2022-12-18T07:47:31;95094.00;;;3.25;75.31
49393;BME280;35268;42.642;23.308;2022-12-18T07:49:58;95099.94;;;3.32;75.13
49393;BME280;35268;42.642;23.308;2022-12-18T07:52:24;95112.78;;;3.28;74.54
49393;BME280;35268;42.642;23.308;2022-12-18T07:54:49;95107.84;;;3.32;73.66
49393;BME280;35268;42.642;23.308;2022-12-18T07:57:16;95100.94;;;3.31;73.75
49393;BME280;35268;42.642;23.308;2022-12-18T07:59:41;95105.09;;;3.27;73.76
49393;BME280;35268;42.642;23.308;2022-12-18T08:02:07;95111.09;;;3.39;73.93
49393;BME280;35268;42.642;23.308;2022-12-18T08:04:35;95115.44;;;3.45;73.89
49393;BME280;35268;42.642;23.308;2022-12-18T08:07:00;95118.13;;;3.33;74.39
49393;BME280;35268;42.642;23.308;2022-12-18T08:09:26;95128.44;;;3.35;75.26
49393;BME280;35268;42.642;23.308;2022-12-18T08:11:51;95119.81;;;3.39;75.26
49393;BME280;35268;42.642;23.308;2022-12-18T08:14:17;95131.97;;;3.40;75.37
49393;BME280;35268;42.642;23.308;2022-12-18T08:16:42;95134.25;;;3.37;75.02
49393;BME280;35268;42.642;23.308;2022-12-18T08:19:08;95137.28;;;3.29;74.70
49393;BME280;35268;42.642;23.308;2022-12-18T08:21:33;95147.81;;;3.29;74.92
49393;BME280;35268;42.642;23.308;2022-12-18T08:24:00;95151.06;;;3.19;75.42
49393;BME280;35268;42.642;23.308;2022-12-18T08:26:28;95149.94;;;3.15;75.35
49393;BME280;35268;42.642;23.308;2022-12-18T08:28:56;95157.22;;;3.25;76.48
49393;BME280;35268;42.642;23.308;2022-12-18T08:31:54;95157.56;;;3.57;79.41
49393;BME280;35268;42.642;23.308;2022-12-18T08:34:19;95151.78;;;3.60;76.58
49393;BME280;35268;42.642;23.308;2022-12-18T08:36:45;95163.63;;;3.74;78.35
49393;BME280;35268;42.642;23.308;2022-12-18T08:39:10;95147.34;;;3.77;76.63
49393;BME280;35268;42.642;23.308;2022-12-18T08:41:36;95158.38;;;3.74;75.26
49393;BME280;35268;42.642;23.308;2022-12-18T08:44:01;95170.03;;;3.78;75.01
49393;BME280;35268;42.642;23.308;2022-12-18T08:46:45;95166.53;;;3.73;74.78
49393;BME280;35268;42.642;23.308;2022-12-18T08:49:11;95160.47;;;3.89;75.96
49393;BME280;35268;42.642;23.308;2022-12-18T08:51:38;95166.31;;;3.91;74.72
49393;BME280;35268;42.642;23.308;2022-12-18T08:54:04;95167.00;;;3.87;73.91
49393;BME280;35268;42.642;23.308;2022-12-18T08:56:30;95168.13;;;3.91;75.17
49393;BME280;35268;42.642;23.308;2022-12-18T08:58:56;95159.09;;;3.87;75.05
49393;BME280;35268;42.642;23.308;2022-12-18T09:01:22;95165.09;;;3.82;75.59
49393;BME280;35268;42.642;23.308;2022-12-18T09:03:50;95163.56;;;3.86;75.61
49393;BME280;35268;42.642;23.308;2022-12-18T09:06:18;95154.78;;;3.80;74.37
49393;BME280;35268;42.642;23.308;2022-12-18T09:08:44;95154.78;;;3.80;74.57
49393;BME280;35268;42.642;23.308;2022-12-18T09:11:28;95153.25;;;3.85;74.97
49393;BME280;35268;42.642;23.308;2022-12-18T09:13:55;95158.63;;;3.73;74.02
49393;BME280;35268;42.642;23.308;2022-12-18T09:16:22;95163.63;;;3.74;74.79
49393;BME280;35268;42.642;23.308;2022-12-18T09:18:48;95170.38;;;3.82;74.97
49393;BME280;35268;42.642;23.308;2022-12-18T09:21:16;95152.06;;;3.75;75.02
49393;BME280;35268;42.642;23.308;2022-12-18T09:23:42;95155.34;;;3.82;75.40
49393;BME280;35268;42.642;23.308;2022-12-18T09:26:07;95160.94;;;3.86;74.39
49393;BME280;35268;42.642;23.308;2022-12-18T09:28:33;95167.66;;;3.77;74.19
49393;BME280;35268;42.642;23.308;2022-12-18T09:30:58;95155.44;;;3.71;74.83
49393;BME280;35268;42.642;23.308;2022-12-18T09:33:24;95155.03;;;3.79;74.34
49393;BME280;35268;42.642;23.308;2022-12-18T09:35:50;95161.66;;;3.81;73.73
49393;BME280;35268;42.642;23.308;2022-12-18T09:38:17;95171.16;;;3.82;74.49
49393;BME280;35268;42.642;23.308;2022-12-18T09:40:49;95165.16;;;3.70;73.93
49393;BME280;35268;42.642;23.308;2022-12-18T09:43:24;95159.88;;;3.70;74.52
49393;BME280;35268;42.642;23.308;2022-12-18T09:46:04;95162.13;;;3.78;73.87
49393;BME280;35268;42.642;23.308;2022-12-18T09:48:35;95155.09;;;3.84;74.86
49393;BME280;35268;42.642;23.308;2022-12-18T09:51:05;95168.13;;;3.74;73.61
49393;BME280;35268;42.642;23.308;2022-12-18T09:53:37;95164.75;;;3.78;73.88
49393;BME280;35268;42.642;23.308;2022-12-18T09:56:21;95162.22;;;3.67;73.93
49393;BME280;35268;42.642;23.308;2022-12-18T09:58:59;95155.16;;;3.72;73.89
49393;BME280;35268;42.642;23.308;2022-12-18T10:01:26;95153.97;;;3.80;72.97
49393;BME280;35268;42.642;23.308;2022-12-18T10:03:53;95150.88;;;4.00;72.14
49393;BME280;35268;42.642;23.308;2022-12-18T10:06:36;95147.28;;;4.06;70.72
49393;BME280;35268;42.642;23.308;2022-12-18T10:09:19;95149.13;;;4.06;70.03
49393;BME280;35268;42.642;23.308;2022-12-18T10:15:13;95149.75;;;3.96;70.52
49393;BME280;35268;42.642;23.308;2022-12-18T10:20:41;95162.78;;;3.86;70.29
49393;BME280;35268;42.642;23.308;2022-12-18T10:26:05;95161.00;;;3.74;70.31
49393;BME280;35268;42.642;23.308;2022-12-18T10:28:33;95164.03;;;3.66;70.54
49393;BME280;35268;42.642;23.308;2022-12-18T10:31:05;95174.00;;;3.64;70.16
49393;BME280;35268;42.642;23.308;2022-12-18T10:33:32;95167.59;;;3.60;71.06
49393;BME280;35268;42.642;23.308;2022-12-18T10:35:59;95166.47;;;3.56;70.17
49393;BME280;35268;42.642;23.308;2022-12-18T10:38:28;95168.00;;;3.52;71.22
49393;BME280;35268;42.642;23.308;2022-12-18T10:43:26;95163.53;;;3.52;70.57
49393;BME280;35268;42.642;23.308;2022-12-18T10:48:36;95168.94;;;3.46;69.98
49393;BME280;35268;42.642;23.308;2022-12-18T10:51:02;95157.66;;;3.33;69.14
49393;BME280;35268;42.642;23.308;2022-12-18T10:53:30;95157.97;;;3.37;68.94
49393;BME280;35268;42.642;23.308;2022-12-18T10:56:00;95163.06;;;3.27;69.23
49393;BME280;35268;42.642;23.308;2022-12-18T10:58:33;95176.00;;;3.28;68.21
49393;BME280;35268;42.642;23.308;2022-12-18T11:01:06;95161.25;;;3.15;67.78
49393;BME280;35268;42.642;23.308;2022-12-18T11:03:41;95172.16;;;3.07;67.99
49393;BME280;35268;42.642;23.308;2022-12-18T11:06:08;95174.13;;;3.00;68.81
49393;BME280;35268;42.642;23.308;2022-12-18T11:08:34;95174.38;;;2.98;68.11
49393;BME280;35268;42.642;23.308;2022-12-18T11:11:00;95160.25;;;3.05;67.00
49393;BME280;35268;42.642;23.308;2022-12-18T11:13:28;95175.28;;;3.04;68.10
49393;BME280;35268;42.642;23.308;2022-12-18T11:15:54;95163.69;;;3.05;67.62
49393;BME280;35268;42.642;23.308;2022-12-18T11:18:33;95169.88;;;3.11;67.42
49393;BME280;35268;42.642;23.308;2022-12-18T11:21:09;95166.78;;;3.14;68.53
49393;BME280;35268;42.642;23.308;2022-12-18T11:23:36;95167.09;;;3.17;68.11
49393;BME280;35268;42.642;23.308;2022-12-18T11:26:04;95174.31;;;3.22;66.52
49393;BME280;35268;42.642;23.308;2022-12-18T11:28:52;95170.06;;;3.21;66.10
49393;BME280;35268;42.642;23.308;2022-12-18T11:36:21;95163.66;;;3.17;66.41
49393;BME280;35268;42.642;23.308;2022-12-18T11:38:48;95160.00;;;3.18;65.76
49393;BME280;35268;42.642;23.308;2022-12-18T11:41:36;95168.56;;;3.25;66.06
49393;BME280;35268;42.642;23.308;2022-12-18T11:47:44;95180.84;;;3.19;63.62
49393;BME280;35268;42.642;23.308;2022-12-18T11:50:16;95182.22;;;3.22;63.21
49393;BME280;35268;42.642;23.308;2022-12-18T11:52:43;95171.34;;;3.18;63.38
49393;BME280;35268;42.642;23.308;2022-12-18T11:55:37;95172.34;;;3.17;63.61
49393;BME280;35268;42.642;23.308;2022-12-18T12:31:14;95159.00;;;3.07;65.49
49393;BME280;35268;42.642;23.308;2022-12-18T12:39:22;95174.19;;;3.17;66.16
49393;BME280;35268;42.642;23.308;2022-12-18T12:41:48;95166.53;;;3.15;66.10
49393;BME280;35268;42.642;23.308;2022-12-18T12:44:42;95170.41;;;3.25;65.98
49393;BME280;35268;42.642;23.308;2022-12-18T12:47:38;95176.00;;;3.28;66.33
49393;BME280;35268;42.642;23.308;2022-12-18T12:50:16;95178.28;;;3.36;65.81
49393;BME280;35268;42.642;23.308;2022-12-18T12:52:54;95183.63;;;3.41;65.58
49393;BME280;35268;42.642;23.308;2022-12-18T12:55:26;95175.41;;;3.38;66.60
49393;BME280;35268;42.642;23.308;2022-12-18T13:03:36;95187.75;;;3.37;66.96
49393;BME280;35268;42.642;23.308;2022-12-18T13:06:17;95187.00;;;3.25;67.07
49393;BME280;35268;42.642;23.308;2022-12-18T13:09:00;95185.09;;;3.20;67.52
49393;BME280;35268;42.642;23.308;2022-12-18T13:14:39;95202.44;;;3.33;67.64
49393;BME280;35268;42.642;23.308;2022-12-18T13:20:04;95203.84;;;3.36;67.92
49393;BME280;35268;42.642;23.308;2022-12-18T13:28:00;95210.34;;;3.33;68.23
49393;BME280;35268;42.642;23.308;2022-12-18T13:46:24;95228.81;;;3.62;66.33
49393;BME280;35268;42.642;23.308;2022-12-18T13:48:55;95228.97;;;3.55;66.45
49393;BME280;35268;42.642;23.308;2022-12-18T13:51:21;95230.25;;;3.53;66.84
49393;BME280;35268;42.642;23.308;2022-12-18T13:53:55;95228.63;;;3.52;66.72
49393;BME280;35268;42.642;23.308;2022-12-18T13:56:27;95237.94;;;3.54;66.19
49393;BME280;35268;42.642;23.308;2022-12-18T13:59:08;95238.88;;;3.48;66.87
49393;BME280;35268;42.642;23.308;2022-12-18T14:01:36;95236.91;;;3.44;67.11
49393;BME280;35268;42.642;23.308;2022-12-18T14:04:20;95241.03;;;3.39;67.38
49393;BME280;35268;42.642;23.308;2022-12-18T14:06:47;95255.25;;;3.50;67.25
49393;BME280;35268;42.642;23.308;2022-12-18T14:09:39;95235.59;;;3.58;66.78
49393;BME280;35268;42.642;23.308;2022-12-18T14:12:11;95238.72;;;3.55;67.12
49393;BME280;35268;42.642;23.308;2022-12-18T14:14:58;95240.31;;;3.56;67.54
49393;BME280;35268;42.642;23.308;2022-12-18T14:17:23;95244.00;;;3.55;67.32
49393;BME280;35268;42.642;23.308;2022-12-18T14:19:50;95256.25;;;3.49;66.65
49393;BME280;35268;42.642;23.308;2022-12-18T14:22:24;95254.00;;;3.41;67.31
49393;BME280;35268;42.642;23.308;2022-12-18T14:27:37;95261.25;;;3.34;66.90
49393;BME280;35268;42.642;23.308;2022-12-18T14:33:04;95250.56;;;3.40;65.64
49393;BME280;35268;42.642;23.308;2022-12-18T14:35:32;95253.56;;;3.32;65.32
49393;BME280;35268;42.642;23.308;2022-12-18T14:38:24;95255.09;;;3.16;64.47
49393;BME280;35268;42.642;23.308;2022-12-18T14:40:55;95255.19;;;3.21;64.58
49393;BME280;35268;42.642;23.308;2022-12-18T14:43:21;95254.50;;;3.14;64.60
49393;BME280;35268;42.642;23.308;2022-12-18T14:45:48;95265.41;;;3.18;64.80
49393;BME280;35268;42.642;23.308;2022-12-18T14:48:41;95258.50;;;3.17;65.05
49393;BME280;35268;42.642;23.308;2022-12-18T14:53:48;95253.00;;;3.30;65.20
49393;BME280;35268;42.642;23.308;2022-12-18T14:56:26;95249.22;;;3.38;64.38
49393;BME280;35268;42.642;23.308;2022-12-18T14:59:12;95248.38;;;3.37;64.50
49393;BME280;35268;42.642;23.308;2022-12-18T15:01:49;95255.84;;;3.40;64.34
49393;BME280;35268;42.642;23.308;2022-12-18T15:04:32;95256.75;;;3.46;64.62
49393;BME280;35268;42.642;23.308;2022-12-18T15:07:21;95260.81;;;3.54;63.81
49393;BME280;35268;42.642;23.308;2022-12-18T15:12:35;95263.00;;;3.57;62.89
49393;BME280;35268;42.642;23.308;2022-12-18T15:15:01;95258.44;;;3.52;62.99
49393;BME280;35268;42.642;23.308;2022-12-18T15:17:26;95264.03;;;3.56;62.61
49393;BME280;35268;42.642;23.308;2022-12-18T15:19:59;95270.25;;;3.50;62.54
49393;BME280;35268;42.642;23.308;2022-12-18T15:22:30;95273.25;;;3.41;62.59
49393;BME280;35268;42.642;23.308;2022-12-18T15:24:58;95271.66;;;3.40;61.90
49393;BME280;35268;42.642;23.308;2022-12-18T15:30:17;95292.41;;;3.25;61.20
49393;BME280;35268;42.642;23.308;2022-12-18T15:32:44;95290.34;;;3.15;61.20